Time;durP1;ratioP1;P1;durP2;ratioP2;P2;SDS_P1;SDS_P2;PMS_P1;PMS_P2;Temp;Humidity;BMP_temperature;BMP_pressure;BME280_temperature;BME280_humidity;BME280_pressure;Samples;Min_cycle;Max_cycle;Signal;HPM_P1;HPM_P2
2022/03/10 00:00:03;;;;;;;;;;;;;;;5.79;52.93;102371.72;4985083;28;19921;-72
2022/03/10 00:02:28;;;;;;;;;;;;;;;5.66;53.18;102369.13;4982920;28;20012;-72
2022/03/10 00:04:54;;;;;;;;;;;;;;;5.54;54.08;102372.63;4986847;28;20016;-71
2022/03/10 00:07:19;;;;;;;;;;;;;;;5.44;54.18;102385.66;4981497;28;19917;-70
2022/03/10 00:09:44;;;;;;;;;;;;;;;5.36;55.59;102367.41;4988034;28;20343;-72
2022/03/10 00:12:10;;;;;;;;;;;;;;;5.29;55.75;102370.91;4985786;28;19992;-72
2022/03/10 00:14:35;;;;;;;;;;;;;;;5.23;56.48;102369.16;4986340;28;20304;-71
2022/03/10 00:17:00;;;;;;;;;;;;;;;5.14;56.86;102369.16;4986029;28;19967;-70
2022/03/10 00:19:25;;;;;;;;;;;;;;;5.11;56.99;102368.28;4967428;28;19929;-71
2022/03/10 00:21:51;;;;;;;;;;;;;;;5.01;57.27;102369.16;4984823;28;19922;-72
2022/03/10 00:24:18;;;;;;;;;;;;;;;4.97;57.76;102366.53;4986465;28;19953;-71
2022/03/10 00:26:43;;;;;;;;;;;;;;;4.92;57.51;102363.94;4984079;28;20288;-71
2022/03/10 00:29:08;;;;;;;;;;;;;;;4.93;58.04;102361.31;4985581;28;19918;-71
2022/03/10 00:31:34;;;;;;;;;;;;;;;4.86;57.43;102359.59;4987068;28;19924;-71
2022/03/10 00:34:00;;;;;;;;;;;;;;;4.88;57.25;102359.56;4996362;28;19929;-71
2022/03/10 00:36:25;;;;;;;;;;;;;;;4.88;57.88;102365.66;5004373;28;20016;-72
2022/03/10 00:38:51;;;;;;;;;;;;;;;4.88;57.51;102354.38;5003284;28;20388;-72
2022/03/10 00:41:16;;;;;;;;;;;;;;;4.88;57.45;102349.16;5004644;28;19921;-72
2022/03/10 00:43:41;;;;;;;;;;;;;;;4.89;57.91;102345.69;5009044;28;20387;-72
2022/03/10 00:46:07;;;;;;;;;;;;;;;4.88;57.56;102341.34;5005596;28;20000;-73
2022/03/10 00:48:32;;;;;;;;;;;;;;;4.93;57.37;102352.66;5007026;28;19933;-72
2022/03/10 00:50:58;;;;;;;;;;;;;;;4.90;57.31;102352.63;5007210;28;19928;-73
2022/03/10 00:53:23;;;;;;;;;;;;;;;4.88;57.10;102354.38;4999181;28;19925;-73
2022/03/10 00:55:49;;;;;;;;;;;;;;;4.85;57.79;102356.97;5002119;28;19918;-72
2022/03/10 00:58:14;;;;;;;;;;;;;;;4.93;56.61;102352.66;5006012;28;20312;-72
2022/03/10 01:00:39;;;;;;;;;;;;;;;4.92;55.98;102351.75;5006163;28;19926;-71
2022/03/10 01:03:06;;;;;;;;;;;;;;;5.02;55.23;102355.25;5004923;28;19973;-71
2022/03/10 01:05:32;;;;;;;;;;;;;;;5.00;55.63;102350.94;5005371;28;19918;-72
2022/03/10 01:07:57;;;;;;;;;;;;;;;4.99;54.88;102342.22;4997749;28;19928;-73
2022/03/10 01:10:23;;;;;;;;;;;;;;;5.02;54.42;102350.06;5000688;28;20257;-74
2022/03/10 01:12:48;;;;;;;;;;;;;;;5.09;54.31;102349.19;5012077;28;19918;-73
2022/03/10 01:15:16;;;;;;;;;;;;;;;5.00;54.69;102348.31;4994579;28;19929;-72
2022/03/10 01:17:41;;;;;;;;;;;;;;;4.91;54.89;102349.16;5009096;28;20333;-73
2022/03/10 01:20:06;;;;;;;;;;;;;;;4.85;55.41;102350.03;5003419;28;20021;-72
2022/03/10 01:22:34;;;;;;;;;;;;;;;4.89;55.54;102348.28;5003880;28;19960;-73
2022/03/10 01:24:59;;;;;;;;;;;;;;;4.86;55.61;102350.88;5004199;28;19917;-72
2022/03/10 01:27:24;;;;;;;;;;;;;;;4.90;54.85;102350.03;5003399;28;19932;-73
2022/03/10 01:29:49;;;;;;;;;;;;;;;4.88;55.06;102350.03;5002911;28;19925;-71
2022/03/10 01:32:15;;;;;;;;;;;;;;;4.84;55.28;102337.88;5004893;28;20059;-71
2022/03/10 01:34:40;;;;;;;;;;;;;;;4.87;55.19;102343.09;5006730;28;19926;-72
2022/03/10 01:37:05;;;;;;;;;;;;;;;4.90;55.32;102337.00;4998661;28;19960;-71
2022/03/10 01:39:32;;;;;;;;;;;;;;;4.89;55.40;102332.66;5005743;28;20304;-72
2022/03/10 01:41:58;;;;;;;;;;;;;;;4.90;55.31;102340.50;5008628;28;19921;-71
2022/03/10 01:44:24;;;;;;;;;;;;;;;4.89;55.73;102332.66;5005202;28;19928;-73
2022/03/10 01:46:49;;;;;;;;;;;;;;;4.92;55.52;102338.75;5001093;28;20057;-72
2022/03/10 01:49:15;;;;;;;;;;;;;;;4.84;56.12;102348.28;5000304;28;20009;-72
2022/03/10 01:51:40;;;;;;;;;;;;;;;4.83;55.91;102343.94;5000356;28;19918;-70
2022/03/10 01:54:06;;;;;;;;;;;;;;;4.72;56.22;102346.53;5008889;28;20004;-70
2022/03/10 01:56:32;;;;;;;;;;;;;;;4.63;56.73;102346.53;5008749;28;20353;-71
2022/03/10 01:58:58;;;;;;;;;;;;;;;4.61;56.82;102343.03;5009866;28;19925;-71
2022/03/10 02:01:24;;;;;;;;;;;;;;;4.52;57.35;102356.91;5007232;28;20442;-69
2022/03/10 02:03:50;;;;;;;;;;;;;;;4.50;57.55;102356.00;5007265;28;19924;-69
2022/03/10 02:06:15;;;;;;;;;;;;;;;4.46;57.83;102356.88;5007449;28;19925;-71
2022/03/10 02:11:22;;;;;;;;;;;;;;;4.59;58.08;102357.78;5000843;28;19973;-69
2022/03/10 02:13:47;;;;;;;;;;;;;;;4.58;58.14;102356.03;5010757;28;20352;-70
2022/03/10 02:18:54;;;;;;;;;;;;;;;4.47;59.13;102356.88;5008640;28;20296;-73
2022/03/10 02:21:19;;;;;;;;;;;;;;;4.45;59.48;102360.34;5004677;28;19926;-73
2022/03/10 02:23:45;;;;;;;;;;;;;;;4.43;60.22;102357.72;5006852;28;19921;-75
2022/03/10 02:26:11;;;;;;;;;;;;;;;4.37;60.14;102357.72;5022825;28;19940;-74
2022/03/10 02:28:37;;;;;;;;;;;;;;;4.36;60.71;102358.56;5006378;28;19918;-74
2022/03/10 02:31:02;;;;;;;;;;;;;;;4.33;61.00;102355.94;5008591;28;19924;-72
2022/03/10 02:33:28;;;;;;;;;;;;;;;4.29;61.09;102355.06;5006666;28;19925;-72
2022/03/10 02:35:53;;;;;;;;;;;;;;;4.22;61.39;102357.63;5002339;28;19929;-72
2022/03/10 02:38:19;;;;;;;;;;;;;;;4.11;61.88;102353.25;4990702;28;19924;-73
2022/03/10 02:40:45;;;;;;;;;;;;;;;4.07;62.35;102354.13;5009652;28;20434;-73
2022/03/10 02:43:10;;;;;;;;;;;;;;;4.02;62.49;102354.06;5005442;28;20392;-72
2022/03/10 02:45:35;;;;;;;;;;;;;;;3.96;62.83;102350.59;4994302;28;19925;-73
2022/03/10 02:48:01;;;;;;;;;;;;;;;3.95;62.82;102351.47;5009139;28;20375;-73
2022/03/10 02:50:26;;;;;;;;;;;;;;;3.86;63.05;102353.13;5005762;28;19957;-73
2022/03/10 02:52:54;;;;;;;;;;;;;;;3.81;63.41;102356.56;5007448;28;19917;-72
2022/03/10 02:55:19;;;;;;;;;;;;;;;3.73;63.68;102359.13;5006874;28;19928;-71
2022/03/10 02:57:45;;;;;;;;;;;;;;;3.64;63.79;102365.13;5009951;28;19917;-72
2022/03/10 03:00:10;;;;;;;;;;;;;;;3.60;64.35;102365.09;5007575;28;20011;-72
2022/03/10 03:02:35;;;;;;;;;;;;;;;3.50;64.29;102366.75;5006249;28;20295;-72
2022/03/10 03:05:01;;;;;;;;;;;;;;;3.43;64.59;102373.63;5006542;28;19960;-69
2022/03/10 03:07:26;;;;;;;;;;;;;;;3.42;64.81;102371.88;5004073;28;19929;-70
2022/03/10 03:09:51;;;;;;;;;;;;;;;3.39;65.28;102374.47;5001686;28;20609;-70
2022/03/10 03:12:17;;;;;;;;;;;;;;;3.34;65.16;102371.84;5006776;28;19928;-70
2022/03/10 03:14:42;;;;;;;;;;;;;;;3.27;65.23;102375.22;5008208;28;19925;-74
2022/03/10 03:17:07;;;;;;;;;;;;;;;3.29;65.82;102376.13;5004175;28;19996;-74
2022/03/10 03:19:33;;;;;;;;;;;;;;;3.28;66.25;102376.97;4997938;28;19922;-73
2022/03/10 03:21:58;;;;;;;;;;;;;;;3.28;66.10;102376.13;5008903;28;19917;-71
2022/03/10 03:24:24;;;;;;;;;;;;;;;3.35;65.50;102378.78;5005091;28;19928;-72
2022/03/10 03:26:49;;;;;;;;;;;;;;;3.36;65.64;102384.84;5007309;28;19939;-72
2022/03/10 03:29:14;;;;;;;;;;;;;;;3.32;65.65;102386.56;5006992;28;19925;-72
2022/03/10 03:31:39;;;;;;;;;;;;;;;3.43;65.72;102384.03;5018472;28;19918;-72
2022/03/10 03:34:10;;;;;;;;;;;;;;;3.42;66.13;102379.69;5006967;28;19929;-73
2022/03/10 03:36:36;;;;;;;;;;;;;;;3.44;67.49;102387.50;5006697;28;19922;-72
2022/03/10 03:39:01;;;;;;;;;;;;;;;3.36;68.02;102385.69;5002210;28;20011;-72
2022/03/10 03:41:27;;;;;;;;;;;;;;;3.32;68.17;102394.34;5005562;28;19921;-74
2022/03/10 03:43:52;;;;;;;;;;;;;;;3.26;68.52;102391.66;5007532;28;19944;-73
2022/03/10 03:46:17;;;;;;;;;;;;;;;3.23;68.24;102399.47;5006722;28;19921;-72
2022/03/10 03:48:42;;;;;;;;;;;;;;;3.17;68.74;102394.19;5006745;28;19917;-73
2022/03/10 03:51:08;;;;;;;;;;;;;;;3.15;69.13;102401.09;5006915;28;19917;-73
2022/03/10 03:53:33;;;;;;;;;;;;;;;3.09;69.08;102400.19;5021662;28;19925;-73
2022/03/10 03:55:58;;;;;;;;;;;;;;;3.07;69.28;102411.44;5007118;28;20008;-73
2022/03/10 03:58:24;;;;;;;;;;;;;;;3.02;69.46;102411.38;5005514;28;19922;-73
2022/03/10 04:00:49;;;;;;;;;;;;;;;2.99;70.07;102407.88;5005991;28;20016;-73
2022/03/10 04:03:14;;;;;;;;;;;;;;;2.98;69.58;102406.16;5006191;28;19963;-73
2022/03/10 04:05:39;;;;;;;;;;;;;;;2.93;70.25;102409.56;5006654;28;20284;-73
2022/03/10 04:08:05;;;;;;;;;;;;;;;2.87;70.14;102404.28;5005610;28;19964;-73
2022/03/10 04:10:31;;;;;;;;;;;;;;;2.86;70.88;102409.47;5006415;28;19960;-73
2022/03/10 04:12:57;;;;;;;;;;;;;;;2.79;71.11;102405.94;5001914;28;19987;-74
2022/03/10 04:15:22;;;;;;;;;;;;;;;2.74;71.39;102402.44;5007802;28;19925;-74
2022/03/10 04:17:47;;;;;;;;;;;;;;;2.71;71.78;102404.97;5000420;28;19922;-72
2022/03/10 04:20:13;;;;;;;;;;;;;;;2.75;71.39;102401.59;5003534;28;19926;-73
2022/03/10 04:22:39;;;;;;;;;;;;;;;2.71;71.04;102405.84;5006461;28;19923;-71
2022/03/10 04:25:05;;;;;;;;;;;;;;;2.68;70.46;102400.63;5005640;28;20369;-69
2022/03/10 04:27:30;;;;;;;;;;;;;;;2.61;70.96;102397.09;5006899;28;19921;-71
2022/03/10 04:29:56;;;;;;;;;;;;;;;2.60;71.03;102404.84;5005756;28;19918;-71
2022/03/10 04:32:21;;;;;;;;;;;;;;;2.56;70.91;102405.69;5006263;28;19918;-71
2022/03/10 04:34:46;;;;;;;;;;;;;;;2.50;71.58;102405.59;5000610;28;19925;-71
2022/03/10 04:37:12;;;;;;;;;;;;;;;2.49;71.60;102409.91;5005337;28;19984;-70
2022/03/10 04:39:37;;;;;;;;;;;;;;;2.48;71.44;102405.59;5007117;28;19940;-75
2022/03/10 04:42:02;;;;;;;;;;;;;;;2.48;71.70;102408.19;5006765;28;20016;-74
2022/03/10 04:44:28;;;;;;;;;;;;;;;2.49;71.57;102404.72;5006674;28;20016;-74
2022/03/10 04:46:53;;;;;;;;;;;;;;;2.56;72.79;102406.53;5007611;28;20379;-73
2022/03/10 04:49:18;;;;;;;;;;;;;;;2.52;72.58;102403.88;4983068;28;19928;-74
2022/03/10 04:51:43;;;;;;;;;;;;;;;2.48;73.15;102406.44;5002871;28;19925;-74
2022/03/10 04:54:09;;;;;;;;;;;;;;;2.43;73.52;102409.81;5006254;28;19917;-75
2022/03/10 04:56:34;;;;;;;;;;;;;;;2.42;73.19;102405.53;5006178;28;20023;-73
2022/03/10 04:58:59;;;;;;;;;;;;;;;2.39;73.70;102405.47;5021328;28;19929;-71
2022/03/10 05:01:25;;;;;;;;;;;;;;;2.43;73.61;102404.63;5002731;28;20852;-70
2022/03/10 05:03:50;;;;;;;;;;;;;;;2.39;73.22;102402.88;4999463;28;19925;-70
2022/03/10 05:06:16;;;;;;;;;;;;;;;2.31;73.13;102398.47;5004367;28;19940;-72
2022/03/10 05:08:41;;;;;;;;;;;;;;;2.32;73.41;102409.72;4975585;28;20631;-72
2022/03/10 05:11:06;;;;;;;;;;;;;;;2.34;73.58;102402.81;5004953;28;20398;-71
2022/03/10 05:13:32;;;;;;;;;;;;;;;2.35;73.91;102404.56;5006145;28;19917;-71
2022/03/10 05:15:57;;;;;;;;;;;;;;;2.30;73.71;102414.00;5003528;28;20342;-71
2022/03/10 05:18:22;;;;;;;;;;;;;;;2.30;74.00;102417.47;5001429;28;19922;-72
2022/03/10 05:20:48;;;;;;;;;;;;;;;2.30;73.90;102408.81;4989196;28;19930;-72
2022/03/10 05:23:13;;;;;;;;;;;;;;;2.22;74.29;102411.28;4999734;28;19925;-72
2022/03/10 05:25:40;;;;;;;;;;;;;;;2.20;74.50;102413.03;4991857;28;19925;-72
2022/03/10 05:28:07;;;;;;;;;;;;;;;2.22;74.75;102415.63;5009557;28;19952;-72
2022/03/10 05:30:33;;;;;;;;;;;;;;;2.20;74.81;102419.91;5010309;28;19921;-72
2022/03/10 05:32:58;;;;;;;;;;;;;;;2.17;74.59;102420.75;5010283;28;20361;-73
2022/03/10 05:35:25;;;;;;;;;;;;;;;2.14;75.05;102420.69;4969756;28;19918;-72
2022/03/10 05:37:50;;;;;;;;;;;;;;;2.17;75.39;102418.16;4968615;28;20028;-73
2022/03/10 05:40:17;;;;;;;;;;;;;;;2.14;75.37;102407.72;4988832;28;19988;-72
2022/03/10 05:42:44;;;;;;;;;;;;;;;2.17;75.64;102418.16;4987733;28;19918;-72
2022/03/10 05:45:10;;;;;;;;;;;;;;;2.27;75.28;102413.94;4985299;28;19922;-70
2022/03/10 05:47:35;;;;;;;;;;;;;;;2.23;75.44;102413.03;4973238;28;20643;-73
2022/03/10 05:50:02;;;;;;;;;;;;;;;2.23;75.49;102401.81;4989546;28;19918;-72
2022/03/10 05:52:28;;;;;;;;;;;;;;;2.25;75.73;102408.75;4988865;28;20384;-72
2022/03/10 05:54:53;;;;;;;;;;;;;;;2.20;75.76;102413.03;4989377;28;19918;-72
2022/03/10 05:57:18;;;;;;;;;;;;;;;2.17;76.00;102413.81;4989190;28;19937;-72
2022/03/10 05:59:43;;;;;;;;;;;;;;;2.10;75.64;102405.94;4970674;28;20013;-73
2022/03/10 06:02:09;;;;;;;;;;;;;;;2.08;75.62;102410.25;4989201;28;19928;-73
2022/03/10 06:04:34;;;;;;;;;;;;;;;2.04;76.15;102411.06;4988962;28;19991;-73
2022/03/10 06:07:00;;;;;;;;;;;;;;;2.10;76.91;102411.13;4989953;28;19922;-72
2022/03/10 06:09:25;;;;;;;;;;;;;;;2.08;76.26;102403.34;4989714;28;20980;-73
2022/03/10 06:11:50;;;;;;;;;;;;;;;2.04;76.32;102406.72;4989756;28;20373;-72
2022/03/10 06:14:17;;;;;;;;;;;;;;;2.05;77.08;102403.28;4989933;28;19968;-74
2022/03/10 06:16:43;;;;;;;;;;;;;;;2.08;76.40;102413.69;4989732;28;19967;-73
2022/03/10 06:19:09;;;;;;;;;;;;;;;2.12;76.65;102404.25;4989622;28;20352;-73
2022/03/10 06:21:34;;;;;;;;;;;;;;;2.21;77.02;102409.53;4988984;28;19957;-74
2022/03/10 06:23:59;;;;;;;;;;;;;;;2.25;76.23;102407.91;4989365;28;19976;-73
2022/03/10 06:26:25;;;;;;;;;;;;;;;2.34;77.01;102415.78;4987875;28;20408;-73
2022/03/10 06:28:50;;;;;;;;;;;;;;;2.36;76.30;102408.91;4987489;28;19929;-74
2022/03/10 06:31:15;;;;;;;;;;;;;;;2.50;76.15;102414.25;4989487;28;20381;-74
2022/03/10 06:33:41;;;;;;;;;;;;;;;2.54;75.80;102415.16;4996965;28;19980;-72
2022/03/10 06:36:06;;;;;;;;;;;;;;;2.55;75.97;102414.31;5009317;28;19922;-74
2022/03/10 06:38:32;;;;;;;;;;;;;;;2.62;75.66;102419.59;5009993;28;20399;-72
2022/03/10 06:40:57;;;;;;;;;;;;;;;2.65;75.17;102425.69;5009535;28;19929;-73
2022/03/10 06:43:23;;;;;;;;;;;;;;;2.68;75.25;102428.28;5008675;28;19918;-73
2022/03/10 06:45:48;;;;;;;;;;;;;;;2.84;74.70;102417.25;5008964;28;19917;-73
2022/03/10 06:48:13;;;;;;;;;;;;;;;2.91;74.28;102415.59;4991311;28;20424;-73
2022/03/10 06:50:39;;;;;;;;;;;;;;;3.03;73.59;102420.03;5009599;28;19922;-74
2022/03/10 06:53:04;;;;;;;;;;;;;;;3.09;73.22;102423.56;5009697;28;19917;-74
2022/03/10 06:55:29;;;;;;;;;;;;;;;3.14;73.14;102431.41;5009722;28;19967;-73
2022/03/10 06:57:55;;;;;;;;;;;;;;;3.23;72.64;102428.03;5008500;28;20296;-73
2022/03/10 07:00:21;;;;;;;;;;;;;;;3.32;72.34;102422.91;4991046;28;20282;-74
2022/03/10 07:02:47;;;;;;;;;;;;;;;3.43;72.08;102419.53;5009719;28;19921;-74
2022/03/10 07:05:12;;;;;;;;;;;;;;;3.45;71.92;102423.88;4991687;28;20008;-73
2022/03/10 07:07:38;;;;;;;;;;;;;;;3.54;71.53;102418.75;5009965;28;19917;-73
2022/03/10 07:10:04;;;;;;;;;;;;;;;3.63;71.25;102412.78;5008741;28;19933;-74
2022/03/10 07:12:29;;;;;;;;;;;;;;;3.80;70.40;102423.28;5010695;28;20039;-74
2022/03/10 07:14:55;;;;;;;;;;;;;;;3.89;70.07;102413.81;5008670;28;20569;-73
2022/03/10 07:17:20;;;;;;;;;;;;;;;4.00;69.72;102406.94;5008964;28;19926;-72
2022/03/10 07:19:46;;;;;;;;;;;;;;;4.11;68.87;102410.50;5008335;28;19921;-73
2022/03/10 07:22:12;;;;;;;;;;;;;;;4.21;68.90;102418.34;5008941;28;20441;-74
2022/03/10 07:24:37;;;;;;;;;;;;;;;4.40;68.26;102401.97;5009422;28;20360;-73
2022/03/10 07:27:02;;;;;;;;;;;;;;;4.44;67.83;102408.91;5008572;28;20020;-73
2022/03/10 07:29:28;;;;;;;;;;;;;;;4.46;67.58;102408.94;5010385;28;20044;-73
2022/03/10 07:31:53;;;;;;;;;;;;;;;4.54;67.19;102411.53;5004477;28;19929;-73
2022/03/10 07:34:18;;;;;;;;;;;;;;;4.64;66.84;102413.31;5007594;28;19929;-73
2022/03/10 07:36:43;;;;;;;;;;;;;;;4.68;66.37;102412.47;5007088;28;20039;-74
2022/03/10 07:39:09;;;;;;;;;;;;;;;4.78;65.91;102422.06;5007153;28;20300;-75
2022/03/10 07:41:34;;;;;;;;;;;;;;;4.91;65.63;102412.53;4990377;28;19918;-73
2022/03/10 07:43:59;;;;;;;;;;;;;;;4.88;65.26;102412.53;5008469;28;20308;-76
2022/03/10 07:46:25;;;;;;;;;;;;;;;4.98;65.35;102418.63;5007930;28;20020;-74
2022/03/10 07:48:51;;;;;;;;;;;;;;;5.06;65.31;102421.25;4990214;28;19921;-75
2022/03/10 07:51:17;;;;;;;;;;;;;;;5.17;64.31;102413.47;5008329;28;19995;-74
2022/03/10 07:53:42;;;;;;;;;;;;;;;5.28;63.26;102424.78;5007981;28;19932;-74
2022/03/10 07:56:07;;;;;;;;;;;;;;;5.52;62.60;102418.69;5007632;28;19917;-74
2022/03/10 07:58:32;;;;;;;;;;;;;;;5.59;62.74;102409.13;5008322;28;19922;-74
2022/03/10 08:00:58;;;;;;;;;;;;;;;5.69;62.46;102413.47;5006357;28;20020;-74
2022/03/10 08:03:25;;;;;;;;;;;;;;;5.75;62.07;102409.09;5006973;28;20349;-73
2022/03/10 08:05:50;;;;;;;;;;;;;;;5.84;61.99;102402.16;5007144;28;19929;-70
2022/03/10 08:08:16;;;;;;;;;;;;;;;6.00;61.46;102408.22;5004672;28;20406;-70
2022/03/10 08:10:41;;;;;;;;;;;;;;;6.06;61.10;102404.75;5005908;28;19926;-71
2022/03/10 08:13:06;;;;;;;;;;;;;;;6.07;61.12;102408.19;5004388;28;19924;-71
2022/03/10 08:15:32;;;;;;;;;;;;;;;6.10;60.82;102403.88;5005081;28;19918;-70
2022/03/10 08:17:57;;;;;;;;;;;;;;;6.37;58.99;102390.72;5005243;28;20603;-71
2022/03/10 08:20:23;;;;;;;;;;;;;;;6.47;58.81;102397.63;5005563;28;19978;-71
2022/03/10 08:22:49;;;;;;;;;;;;;;;6.49;58.43;102395.91;5006350;28;20392;-70
2022/03/10 08:25:14;;;;;;;;;;;;;;;6.62;58.53;102394.94;5006647;28;20028;-70
2022/03/10 08:27:39;;;;;;;;;;;;;;;6.79;57.61;102387.00;4988541;28;19960;-72
2022/03/10 08:30:05;;;;;;;;;;;;;;;7.17;56.81;102385.00;5005327;28;19975;-71
2022/03/10 08:32:33;;;;;;;;;;;;;;;7.23;56.22;102382.38;4983396;28;20388;-70
2022/03/10 08:34:58;;;;;;;;;;;;;;;7.25;55.82;102380.63;4997450;28;20441;-71
2022/03/10 08:37:24;;;;;;;;;;;;;;;7.40;55.38;102379.63;5004165;28;20024;-71
2022/03/10 08:39:49;;;;;;;;;;;;;;;8.50;52.98;102382.84;4997230;28;19929;-70
2022/03/10 08:42:14;;;;;;;;;;;;;;;10.87;47.28;102375.09;5005464;28;19922;-70
2022/03/10 08:44:39;;;;;;;;;;;;;;;12.12;43.38;102371.03;5013749;28;19917;-70
2022/03/10 08:47:05;;;;;;;;;;;;;;;13.23;40.04;102370.25;5025467;28;19921;-70
2022/03/10 08:49:30;;;;;;;;;;;;;;;14.87;37.31;102370.53;5027729;28;19921;-70
2022/03/10 08:51:56;;;;;;;;;;;;;;;13.65;38.37;102365.38;5018492;28;19918;-70
2022/03/10 08:54:21;;;;;;;;;;;;;;;15.15;36.01;102362.31;5009821;28;19932;-71
2022/03/10 08:56:47;;;;;;;;;;;;;;;15.72;34.88;102362.53;5009497;28;19917;-71
2022/03/10 08:59:12;;;;;;;;;;;;;;;16.67;33.34;102364.41;5008596;28;19922;-71
2022/03/10 09:01:38;;;;;;;;;;;;;;;16.94;32.79;102368.47;4991949;28;20385;-71
2022/03/10 09:04:03;;;;;;;;;;;;;;;16.69;32.50;102364.31;4990790;28;19922;-71
2022/03/10 09:06:29;;;;;;;;;;;;;;;17.50;31.62;102363.88;4993103;28;19917;-71
2022/03/10 09:08:54;;;;;;;;;;;;;;;17.87;30.46;102359.28;5000179;28;20391;-69
2022/03/10 09:11:19;;;;;;;;;;;;;;;17.76;30.82;102361.66;5010448;28;20399;-71
2022/03/10 09:13:48;;;;;;;;;;;;;;;17.18;31.79;102371.69;5025433;28;19922;-71
2022/03/10 09:16:15;;;;;;;;;;;;;;;17.97;30.55;102362.31;5010371;28;19918;-72
2022/03/10 09:18:41;;;;;;;;;;;;;;;18.75;29.48;102355.41;5011415;28;19921;-72
2022/03/10 09:21:07;;;;;;;;;;;;;;;19.15;29.09;102363.78;5010412;28;20415;-71
2022/03/10 09:23:32;;;;;;;;;;;;;;;19.33;28.76;102366.28;5011132;28;19925;-71
2022/03/10 09:25:57;;;;;;;;;;;;;;;19.47;28.00;102358.34;5010370;28;19917;-71
2022/03/10 09:28:23;;;;;;;;;;;;;;;18.82;28.85;102359.44;5008351;28;20288;-71
2022/03/10 09:30:48;;;;;;;;;;;;;;;19.46;28.23;102351.28;5007638;28;20028;-72
2022/03/10 09:33:13;;;;;;;;;;;;;;;20.36;27.38;102348.44;5010368;28;20469;-70
2022/03/10 09:35:38;;;;;;;;;;;;;;;20.23;27.24;102346.53;4992558;28;20011;-71
2022/03/10 09:38:04;;;;;;;;;;;;;;;18.58;29.17;102351.03;5010123;28;19952;-71
2022/03/10 09:40:29;;;;;;;;;;;;;;;19.60;28.08;102342.44;5011771;28;20028;-71
2022/03/10 09:42:55;;;;;;;;;;;;;;;20.69;27.42;102347.19;4991594;28;19917;-70
2022/03/10 09:45:20;;;;;;;;;;;;;;;20.76;26.51;102339.66;5027743;28;19925;-72
2022/03/10 09:47:47;;;;;;;;;;;;;;;18.30;29.54;102344.63;5016341;28;20731;-71
2022/03/10 09:50:14;;;;;;;;;;;;;;;19.68;27.97;102339.31;5009777;28;20300;-70
2022/03/10 09:52:40;;;;;;;;;;;;;;;19.46;28.56;102332.63;5011483;28;19921;-72
2022/03/10 09:55:07;;;;;;;;;;;;;;;19.43;28.47;102327.47;5008823;28;20707;-71
2022/03/10 09:57:35;;;;;;;;;;;;;;;18.32;30.05;102324.94;5025744;28;19917;-72
2022/03/10 10:00:00;;;;;;;;;;;;;;;18.91;29.89;102320.75;4990638;28;20352;-70
2022/03/10 10:02:27;;;;;;;;;;;;;;;19.52;28.59;102318.06;5009410;28;19967;-70
2022/03/10 10:04:52;;;;;;;;;;;;;;;19.95;28.78;102322.59;5008974;28;19998;-71
2022/03/10 10:07:19;;;;;;;;;;;;;;;18.03;30.65;102322.13;5008430;28;19940;-72
2022/03/10 10:09:45;;;;;;;;;;;;;;;17.85;31.29;102333.72;5010017;28;19922;-71
2022/03/10 10:12:12;;;;;;;;;;;;;;;19.31;29.15;102318.44;5008039;28;20056;-71
2022/03/10 10:14:39;;;;;;;;;;;;;;;18.65;30.13;102329.31;5019696;28;20004;-71
2022/03/10 10:17:05;;;;;;;;;;;;;;;18.51;30.37;102322.13;4991202;28;20036;-71
2022/03/10 10:19:32;;;;;;;;;;;;;;;18.11;31.38;102332.34;5011048;28;20016;-71
2022/03/10 10:22:13;;;;;;;;;;;;;;;18.82;30.80;102325.66;5008742;28;19956;-71
2022/03/10 10:24:38;;;;;;;;;;;;;;;18.69;29.85;102319.34;5009023;28;19922;-71
2022/03/10 10:27:19;;;;;;;;;;;;;;;18.77;30.29;102325.09;5006402;28;19917;-71
2022/03/10 10:29:45;;;;;;;;;;;;;;;19.29;29.98;102325.66;5009749;28;19948;-72
2022/03/10 10:32:11;;;;;;;;;;;;;;;19.38;29.50;102321.59;5007795;28;19921;-71
2022/03/10 10:34:36;;;;;;;;;;;;;;;19.57;28.87;102326.63;5008766;28;20043;-71
2022/03/10 10:37:01;;;;;;;;;;;;;;;20.23;28.38;102319.84;5008001;28;19932;-71
2022/03/10 10:39:27;;;;;;;;;;;;;;;19.68;29.42;102323.31;5010981;28;20576;-71
2022/03/10 10:41:52;;;;;;;;;;;;;;;19.91;29.00;102322.78;5009215;28;19921;-71
2022/03/10 10:44:18;;;;;;;;;;;;;;;19.89;28.68;102311.34;5018027;28;20008;-71
2022/03/10 10:46:45;;;;;;;;;;;;;;;19.78;28.87;102305.78;5029977;28;19943;-71
2022/03/10 10:49:11;;;;;;;;;;;;;;;19.31;29.75;102300.63;5013253;28;20351;-71
2022/03/10 10:51:39;;;;;;;;;;;;;;;19.32;29.82;102309.50;5010578;28;19917;-71
2022/03/10 10:54:06;;;;;;;;;;;;;;;19.04;30.21;102307.63;5007800;28;20316;-71
2022/03/10 10:56:33;;;;;;;;;;;;;;;18.59;31.18;102313.69;5009574;28;19921;-71
2022/03/10 10:59:00;;;;;;;;;;;;;;;17.65;32.46;102309.06;5007188;28;19953;-70
2022/03/10 11:01:30;;;;;;;;;;;;;;;17.57;32.76;102308.59;5004094;28;19971;-72
2022/03/10 11:03:56;;;;;;;;;;;;;;;17.19;33.14;102316.81;5006629;28;19988;-71
2022/03/10 11:06:22;;;;;;;;;;;;;;;16.28;34.68;102320.25;5001967;28;19925;-72
2022/03/10 11:08:48;;;;;;;;;;;;;;;15.56;35.94;102317.28;5005958;28;19919;-71
2022/03/10 11:11:15;;;;;;;;;;;;;;;15.23;36.60;102320.50;5005674;28;20660;-71
2022/03/10 11:13:40;;;;;;;;;;;;;;;14.80;38.15;102317.00;5008312;28;19921;-70
2022/03/10 11:16:06;;;;;;;;;;;;;;;14.54;38.23;102318.91;5006864;28;20004;-71
2022/03/10 11:18:32;;;;;;;;;;;;;;;14.44;38.71;102328.13;5008598;28;20399;-71
2022/03/10 11:21:13;;;;;;;;;;;;;;;14.02;39.14;102317.31;5003980;28;19922;-70
2022/03/10 11:23:38;;;;;;;;;;;;;;;14.25;38.55;102314.75;5002983;28;20399;-71
2022/03/10 11:26:10;;;;;;;;;;;;;;;14.05;39.09;102311.94;5005076;28;19917;-69
2022/03/10 11:28:42;;;;;;;;;;;;;;;14.06;38.84;102311.03;5008593;28;19921;-69
2022/03/10 11:31:09;;;;;;;;;;;;;;;14.00;38.98;102300.66;5004857;28;19933;-70
2022/03/10 11:33:36;;;;;;;;;;;;;;;13.67;40.42;102303.63;5008517;28;19917;-71
2022/03/10 11:36:18;;;;;;;;;;;;;;;13.97;39.28;102302.56;5006183;28;19983;-71
2022/03/10 11:38:59;;;;;;;;;;;;;;;13.86;39.67;102295.06;5017931;28;20473;-71
2022/03/10 11:41:26;;;;;;;;;;;;;;;13.90;39.02;102291.34;5011297;28;20603;-70
2022/03/10 11:43:57;;;;;;;;;;;;;;;13.87;39.72;102296.78;5014367;28;19932;-71
2022/03/10 11:46:25;;;;;;;;;;;;;;;14.01;40.72;102288.31;5013607;28;19925;-71
2022/03/10 11:49:06;;;;;;;;;;;;;;;13.98;39.05;102285.78;5008691;28;19932;-70
2022/03/10 11:51:40;;;;;;;;;;;;;;;14.03;39.54;102286.50;5004983;28;19967;-71
2022/03/10 11:54:06;;;;;;;;;;;;;;;14.01;38.75;102281.25;5004968;28;19917;-71
2022/03/10 11:56:32;;;;;;;;;;;;;;;14.05;38.67;102288.16;5006082;28;19925;-71
2022/03/10 11:59:15;;;;;;;;;;;;;;;14.16;38.12;102278.94;5006416;28;19918;-69
2022/03/10 12:01:42;;;;;;;;;;;;;;;14.00;38.02;102276.88;4983655;28;19925;-71
2022/03/10 12:04:12;;;;;;;;;;;;;;;14.15;38.00;102269.28;5006474;28;20319;-71
2022/03/10 12:06:37;;;;;;;;;;;;;;;14.18;37.07;102266.53;5005648;28;19936;-71
2022/03/10 12:09:04;;;;;;;;;;;;;;;14.11;37.32;102257.13;5002584;28;19925;-70
2022/03/10 12:11:46;;;;;;;;;;;;;;;14.09;37.68;102259.81;5015181;28;19921;-71
2022/03/10 12:14:26;;;;;;;;;;;;;;;14.13;37.16;102253.50;5016734;28;19995;-71
2022/03/10 12:16:52;;;;;;;;;;;;;;;14.18;36.80;102246.22;5005596;28;19924;-71
2022/03/10 12:19:17;;;;;;;;;;;;;;;14.23;36.64;102240.75;5006383;28;19921;-71
2022/03/10 12:21:42;;;;;;;;;;;;;;;14.20;37.19;102244.41;5005471;28;19917;-71
2022/03/10 12:24:11;;;;;;;;;;;;;;;14.35;36.27;102231.50;5005255;28;19928;-72
2022/03/10 12:26:37;;;;;;;;;;;;;;;14.36;36.25;102226.13;5004927;28;19987;-70
2022/03/10 12:29:03;;;;;;;;;;;;;;;14.33;34.96;102225.41;5004870;28;19921;-70
2022/03/10 12:31:32;;;;;;;;;;;;;;;14.24;35.17;102223.97;5005068;28;20367;-70
2022/03/10 12:33:58;;;;;;;;;;;;;;;14.21;35.97;102224.13;5015586;28;20426;-71
2022/03/10 12:36:24;;;;;;;;;;;;;;;14.15;36.36;102222.59;5025017;28;20357;-72
2022/03/10 12:38:49;;;;;;;;;;;;;;;14.34;36.85;102222.69;5001621;28;19917;-71
2022/03/10 12:41:15;;;;;;;;;;;;;;;14.45;36.65;102218.75;5006422;28;19932;-71